Time;durP1;ratioP1;P1;durP2;ratioP2;P2;SDS_P1;SDS_P2;PMS_P1;PMS_P2;Temp;Humidity;BMP_temperature;BMP_pressure;BME280_temperature;BME280_humidity;BME280_pressure;Samples;Min_cycle;Max_cycle;Signal;HPM_P1;HPM_P2
2021/03/22 00:01:03;;;;;;;24.63;3.87;;;2.90;81.90;;;;;;5050301;28;20098;-63
2021/03/22 00:03:29;;;;;;;24.80;3.70;;;2.80;82.00;;;;;;5050363;28;20462;-63
2021/03/22 00:05:55;;;;;;;29.27;4.50;;;2.80;82.10;;;;;;5050458;28;20068;-63
2021/03/22 00:08:22;;;;;;;28.87;4.60;;;2.80;82.20;;;;;;5032812;28;20037;-63
2021/03/22 00:10:49;;;;;;;24.80;4.23;;;2.80;82.30;;;;;;5015700;28;20078;-63
2021/03/22 00:13:17;;;;;;;30.47;4.17;;;2.80;82.20;;;;;;5032816;28;20036;-63
2021/03/22 00:15:44;;;;;;;31.60;4.67;;;2.80;82.30;;;;;;5048861;28;20409;-63
2021/03/22 00:18:16;;;;;;;30.43;4.70;;;2.80;82.50;;;;;;5032922;28;20051;-63
2021/03/22 00:20:42;;;;;;;27.93;4.57;;;2.70;82.40;;;;;;5032126;28;20037;-64
2021/03/22 00:23:08;;;;;;;27.60;4.47;;;2.70;82.30;;;;;;5032664;28;20048;-63
2021/03/22 00:25:34;;;;;;;34.63;4.60;;;2.60;82.40;;;;;;5050562;28;20087;-63
2021/03/22 00:28:00;;;;;;;33.70;4.33;;;2.70;82.60;;;;;;5039871;28;20040;-63
2021/03/22 00:30:29;;;;;;;30.83;4.17;;;2.60;82.60;;;;;;5049356;28;20060;-63
2021/03/22 00:32:54;;;;;;;30.50;4.40;;;2.60;82.60;;;;;;5051610;28;20037;-63
2021/03/22 00:35:20;;;;;;;25.97;4.60;;;2.60;82.60;;;;;;5051129;28;20436;-63
2021/03/22 00:37:47;;;;;;;32.03;5.33;;;2.50;82.80;;;;;;5057189;28;20442;-63
2021/03/22 00:40:14;;;;;;;29.43;4.87;;;2.50;82.90;;;;;;5068557;28;20377;-63
2021/03/22 00:42:41;;;;;;;30.50;4.30;;;2.50;83.00;;;;;;5029935;28;20045;-63
2021/03/22 00:45:08;;;;;;;26.00;3.97;;;2.50;83.10;;;;;;5064272;28;20037;-63
2021/03/22 00:47:34;;;;;;;19.73;3.67;;;2.50;83.00;;;;;;5055595;28;20040;-63
2021/03/22 00:50:02;;;;;;;25.73;4.17;;;2.50;83.20;;;;;;5073950;28;20131;-65
2021/03/22 00:52:29;;;;;;;30.40;4.03;;;2.40;83.10;;;;;;5033567;28;20103;-63
2021/03/22 00:54:58;;;;;;;21.67;3.83;;;2.40;83.20;;;;;;5065408;28;20085;-62
2021/03/22 00:57:23;;;;;;;30.40;3.90;;;2.40;83.40;;;;;;5073442;28;20447;-63
2021/03/22 00:59:49;;;;;;;29.87;4.50;;;2.30;83.40;;;;;;5073947;28;20447;-63
2021/03/22 01:02:15;;;;;;;29.07;4.27;;;2.30;83.50;;;;;;5073414;28;20090;-63
2021/03/22 01:04:41;;;;;;;28.23;4.63;;;2.30;83.70;;;;;;5073218;28;20037;-63
2021/03/22 01:07:06;;;;;;;25.10;5.00;;;2.30;83.90;;;;;;5073797;28;20039;-63
2021/03/22 01:09:32;;;;;;;28.40;4.43;;;2.30;83.80;;;;;;5073285;28;20045;-63
2021/03/22 01:11:58;;;;;;;31.83;4.90;;;2.30;84.00;;;;;;5055405;28;20032;-63
2021/03/22 01:14:24;;;;;;;26.57;3.80;;;2.30;83.80;;;;;;5073464;28;20079;-63
2021/03/22 01:16:50;;;;;;;29.47;4.23;;;2.20;83.80;;;;;;5073023;28;20040;-63
2021/03/22 01:19:19;;;;;;;25.53;5.23;;;2.20;83.80;;;;;;5072144;28;20424;-64
2021/03/22 01:22:00;;;;;;;29.53;4.17;;;2.20;84.00;;;;;;5038181;28;20044;-64
2021/03/22 01:24:27;;;;;;;34.00;4.65;;;2.20;84.50;;;;;;5072163;28;20037;-64
2021/03/22 01:27:00;;;;;;;33.70;5.57;;;2.10;84.40;;;;;;5055510;28;20447;-64
2021/03/22 01:29:33;;;;;;;26.53;4.20;;;2.10;84.40;;;;;;5071842;28;20033;-63
2021/03/22 01:32:00;;;;;;;24.67;4.50;;;2.10;84.20;;;;;;5073302;28;20503;-63
2021/03/22 01:34:28;;;;;;;29.73;4.27;;;2.10;84.30;;;;;;5072752;28;20502;-63
2021/03/22 01:36:56;;;;;;;27.33;4.93;;;2.00;84.50;;;;;;5039032;28;20032;-63
2021/03/22 01:39:25;;;;;;;30.27;5.30;;;2.00;84.40;;;;;;5061372;28;20043;-63
2021/03/22 01:42:32;;;;;;;25.30;4.20;;;2.00;84.50;;;;;;5044186;28;20041;-63
2021/03/22 01:45:03;;;;;;;19.60;3.80;;;1.90;84.40;;;;;;5053406;28;20088;-63
2021/03/22 01:47:32;;;;;;;22.97;4.97;;;1.80;84.50;;;;;;5061104;28;20040;-63
2021/03/22 01:50:20;;;;;;;31.10;4.40;;;1.80;84.70;;;;;;5048136;28;20169;-63
2021/03/22 01:52:48;;;;;;;27.37;4.40;;;1.80;84.90;;;;;;5054383;28;20428;-63
2021/03/22 01:55:16;;;;;;;25.57;4.63;;;1.80;85.20;;;;;;5054966;28;20048;-63
2021/03/22 01:57:44;;;;;;;29.13;4.80;;;1.70;85.20;;;;;;5072819;28;20062;-63
2021/03/22 02:00:15;;;;;;;34.40;4.83;;;1.70;85.40;;;;;;5047331;28;20036;-63
2021/03/22 02:02:43;;;;;;;33.75;5.75;;;1.80;85.80;;;;;;5062398;28;20044;-63
2021/03/22 02:05:12;;;;;;;29.73;4.23;;;1.80;86.10;;;;;;5070633;28;20512;-63
2021/03/22 02:07:38;;;;;;;33.63;5.10;;;1.80;85.90;;;;;;5072669;28;20048;-63
2021/03/22 02:10:07;;;;;;;25.87;4.40;;;1.80;85.80;;;;;;5054789;28;20041;-63
2021/03/22 02:12:32;;;;;;;31.87;5.43;;;1.80;85.90;;;;;;5054320;28;20124;-63
2021/03/22 02:14:58;;;;;;;30.77;5.90;;;1.80;86.20;;;;;;5059787;28;20120;-63
2021/03/22 02:17:35;;;;;;;28.97;5.30;;;1.80;86.40;;;;;;5051791;28;20120;-65
2021/03/22 02:20:36;;;;;;;31.03;5.03;;;1.90;86.40;;;;;;5052207;28;20107;-64
2021/03/22 02:23:42;;;;;;;26.40;4.82;;;1.90;86.50;;;;;;5052165;28;20049;-64
2021/03/22 02:26:45;;;;;;;30.00;5.30;;;1.90;86.70;;;;;;5034187;28;20040;-63
2021/03/22 02:29:34;;;;;;;29.27;5.07;;;1.90;86.70;;;;;;5033757;28;20489;-63
2021/03/22 02:32:25;;;;;;;30.70;4.50;;;1.90;86.90;;;;;;5051324;28;20481;-63
2021/03/22 02:35:04;;;;;;;30.45;5.07;;;1.90;86.70;;;;;;5052040;28;20516;-63
2021/03/22 02:37:36;;;;;;;30.97;4.87;;;1.90;86.60;;;;;;5051881;28;20047;-63
2021/03/22 02:40:19;;;;;;;30.13;5.33;;;1.80;86.40;;;;;;5047458;28;20068;-63
2021/03/22 02:42:48;;;;;;;29.60;5.10;;;1.90;86.40;;;;;;5058419;28;20032;-63
2021/03/22 02:45:29;;;;;;;31.90;4.90;;;1.80;86.40;;;;;;5076025;22;20036;-67
2021/03/22 02:47:56;;;;;;;31.23;5.47;;;1.70;86.50;;;;;;5058311;28;20036;-68
2021/03/22 02:50:32;;;;;;;27.53;4.57;;;1.70;86.80;;;;;;5063789;28;20036;-66
2021/03/22 02:53:08;;;;;;;30.70;5.57;;;1.70;86.80;;;;;;5058249;28;20470;-66
2021/03/22 02:55:56;;;;;;;34.77;5.27;;;1.70;86.90;;;;;;5060608;28;20494;-66
2021/03/22 02:58:28;;;;;;;28.70;4.80;;;1.60;86.90;;;;;;5071382;28;20033;-69
2021/03/22 03:01:03;;;;;;;28.70;5.03;;;1.60;86.80;;;;;;5071300;28;20123;-69
2021/03/22 03:03:30;;;;;;;34.63;5.17;;;1.60;87.00;;;;;;5072919;28;20029;-66
2021/03/22 03:05:56;;;;;;;30.63;5.30;;;1.60;87.30;;;;;;5072076;28;20037;-68
2021/03/22 03:08:41;;;;;;;31.63;5.50;;;1.60;87.20;;;;;;5053635;28;20032;-68
2021/03/22 03:11:09;;;;;;;28.83;5.03;;;1.50;87.10;;;;;;5071418;28;20499;-68
2021/03/22 03:13:35;;;;;;;36.10;5.07;;;1.50;87.80;;;;;;5070803;28;20048;-68
2021/03/22 03:16:05;;;;;;;36.40;5.73;;;1.40;87.40;;;;;;5071440;28;20062;-68
2021/03/22 03:18:30;;;;;;;30.53;4.43;;;1.40;88.00;;;;;;5052937;28;20044;-67
2021/03/22 03:20:57;;;;;;;27.00;4.17;;;1.40;87.70;;;;;;5070909;28;20037;-67
2021/03/22 03:23:24;;;;;;;21.17;3.93;;;1.40;87.70;;;;;;5071220;28;20033;-66
2021/03/22 03:25:50;;;;;;;33.30;4.33;;;1.40;87.60;;;;;;5070685;28;20052;-66
2021/03/22 03:28:15;;;;;;;30.87;5.47;;;1.40;87.50;;;;;;5053304;28;20060;-66
2021/03/22 03:30:41;;;;;;;39.27;5.10;;;1.30;87.40;;;;;;5052405;28;20036;-68
2021/03/22 03:33:13;;;;;;;25.80;4.13;;;1.30;87.60;;;;;;5065074;28;20547;-66
2021/03/22 03:35:41;;;;;;;33.83;4.77;;;1.30;87.70;;;;;;5050764;28;20041;-67
2021/03/22 03:38:08;;;;;;;36.10;5.17;;;1.20;88.00;;;;;;5032801;28;20037;-68
2021/03/22 03:40:43;;;;;;;35.30;5.70;;;1.20;88.10;;;;;;5031802;28;20540;-68
2021/03/22 03:43:11;;;;;;;27.00;4.67;;;1.20;88.20;;;;;;5043818;28;20482;-68
2021/03/22 03:45:39;;;;;;;23.80;4.97;;;1.20;88.30;;;;;;5060395;28;20048;-68
2021/03/22 03:48:06;;;;;;;30.73;4.57;;;1.20;88.20;;;;;;5062168;28;20066;-68
2021/03/22 03:50:34;;;;;;;28.57;5.27;;;1.20;88.20;;;;;;5058626;28;20428;-68
2021/03/22 03:53:00;;;;;;;38.90;5.70;;;1.20;88.40;;;;;;5044472;28;20075;-68
2021/03/22 03:55:28;;;;;;;37.83;5.93;;;1.20;88.70;;;;;;5052480;28;20032;-68
2021/03/22 03:57:55;;;;;;;36.47;6.07;;;1.20;88.80;;;;;;5052855;28;20037;-68
2021/03/22 04:00:31;;;;;;;35.93;5.63;;;1.20;88.70;;;;;;5070252;28;20028;-69
2021/03/22 04:02:57;;;;;;;25.53;5.63;;;1.20;88.50;;;;;;5045832;28;20056;-69
2021/03/22 04:05:27;;;;;;;37.10;6.07;;;1.20;88.40;;;;;;5049547;28;20039;-66
2021/03/22 04:07:54;;;;;;;37.30;5.90;;;1.10;88.50;;;;;;5072257;28;20036;-66
2021/03/22 04:10:19;;;;;;;38.37;6.33;;;1.10;88.90;;;;;;5056749;28;20043;-67
2021/03/22 04:12:45;;;;;;;37.37;6.43;;;1.10;88.90;;;;;;5074362;28;20040;-67
2021/03/22 04:15:14;;;;;;;35.53;6.20;;;1.10;89.10;;;;;;5056789;28;20040;-69
2021/03/22 04:17:40;;;;;;;32.27;6.20;;;1.10;89.00;;;;;;5074240;28;20132;-67
2021/03/22 04:20:07;;;;;;;35.13;5.57;;;1.10;88.80;;;;;;5074448;28;20033;-68
2021/03/22 04:22:33;;;;;;;33.37;5.80;;;1.00;88.80;;;;;;5056749;28;20077;-67
2021/03/22 04:24:59;;;;;;;36.40;5.97;;;1.00;88.90;;;;;;5074223;28;20041;-67
2021/03/22 04:27:24;;;;;;;38.70;6.50;;;1.00;89.20;;;;;;5074459;28;20507;-69
2021/03/22 04:29:50;;;;;;;38.83;6.40;;;1.00;89.30;;;;;;5074114;28;20040;-68
2021/03/22 04:32:16;;;;;;;38.10;7.00;;;1.00;89.30;;;;;;5074237;28;20554;-68
2021/03/22 04:34:41;;;;;;;37.03;6.10;;;1.00;89.20;;;;;;5074303;28;20124;-68
2021/03/22 04:37:08;;;;;;;32.97;5.47;;;1.00;89.30;;;;;;5039515;28;21531;-67
2021/03/22 04:39:34;;;;;;;27.73;4.87;;;0.90;89.30;;;;;;5074323;28;20451;-68
2021/03/22 04:42:00;;;;;;;32.50;5.97;;;0.90;89.40;;;;;;5073617;28;20468;-66
2021/03/22 04:44:26;;;;;;;28.43;5.47;;;0.90;89.50;;;;;;5054222;28;20036;-68
2021/03/22 04:46:51;;;;;;;38.43;6.53;;;0.90;90.00;;;;;;5030263;28;20411;-69
2021/03/22 04:49:17;;;;;;;31.73;6.00;;;0.90;90.20;;;;;;5047334;28;20041;-68
2021/03/22 04:51:42;;;;;;;49.33;7.50;;;1.00;90.30;;;;;;5061917;28;20039;-69
2021/03/22 04:54:08;;;;;;;42.53;7.20;;;1.00;90.30;;;;;;5061028;28;20106;-67
2021/03/22 04:56:34;;;;;;;46.80;6.83;;;1.10;90.60;;;;;;5063017;28;20047;-67
2021/03/22 04:59:00;;;;;;;34.37;6.40;;;1.20;90.80;;;;;;5068069;28;20037;-67
2021/03/22 05:01:26;;;;;;;46.60;6.73;;;1.30;90.90;;;;;;5071100;28;20048;-67
2021/03/22 05:03:52;;;;;;;25.40;5.77;;;1.40;91.00;;;;;;5060665;28;20040;-67
2021/03/22 05:06:18;;;;;;;35.90;6.77;;;1.50;91.10;;;;;;5070228;28;20503;-67
2021/03/22 05:08:44;;;;;;;38.67;7.03;;;1.70;91.20;;;;;;5061476;28;20039;-67
2021/03/22 05:11:09;;;;;;;37.13;7.47;;;1.80;91.20;;;;;;5035559;28;20117;-68
2021/03/22 05:13:35;;;;;;;36.00;6.70;;;1.90;91.10;;;;;;5043343;28;20043;-68
2021/03/22 05:16:02;;;;;;;35.50;6.93;;;2.00;91.20;;;;;;5061316;28;20025;-68
2021/03/22 05:18:31;;;;;;;40.37;6.73;;;2.10;91.20;;;;;;5065692;28;20044;-67
2021/03/22 05:21:02;;;;;;;37.13;7.03;;;2.20;91.20;;;;;;5045644;28;20048;-67
2021/03/22 05:23:28;;;;;;;40.47;6.93;;;2.30;91.20;;;;;;5047115;28;20408;-68
2021/03/22 05:25:56;;;;;;;37.70;6.90;;;2.40;91.20;;;;;;5062148;28;20473;-67
2021/03/22 05:28:24;;;;;;;36.03;6.83;;;2.40;91.20;;;;;;5047062;28;20432;-67
2021/03/22 05:30:50;;;;;;;39.17;6.37;;;2.50;91.20;;;;;;5048396;28;20036;-70
2021/03/22 05:33:18;;;;;;;32.93;6.50;;;2.60;91.30;;;;;;5064710;28;20435;-67
2021/03/22 05:35:45;;;;;;;38.43;6.73;;;2.70;91.30;;;;;;5043921;28;20048;-67
2021/03/22 05:38:12;;;;;;;42.10;7.13;;;2.80;91.30;;;;;;5064769;28;20116;-70
2021/03/22 05:40:45;;;;;;;33.63;6.50;;;2.80;91.20;;;;;;5048810;28;20115;-68
2021/03/22 05:43:42;;;;;;;28.27;6.30;;;2.90;91.30;;;;;;5059689;28;20128;-68
2021/03/22 05:46:36;;;;;;;27.37;6.67;;;2.90;91.20;;;;;;5048336;28;20048;-70
2021/03/22 05:49:30;;;;;;;31.37;6.10;;;3.00;91.20;;;;;;5032199;28;20504;-69
2021/03/22 05:52:37;;;;;;;36.53;6.43;;;3.00;91.30;;;;;;5045812;28;20038;-69
2021/03/22 05:55:36;;;;;;;28.43;6.47;;;3.10;91.30;;;;;;5006585;28;20474;-70
2021/03/22 05:58:23;;;;;;;33.70;7.47;;;3.20;91.40;;;;;;5060814;28;20059;-69
2021/03/22 06:01:22;;;;;;;29.07;7.30;;;3.30;91.40;;;;;;5055857;28;20089;-69
2021/03/22 06:03:54;;;;;;;29.90;7.47;;;3.30;91.40;;;;;;5052857;28;20037;-69
2021/03/22 06:06:26;;;;;;;31.27;6.60;;;3.40;91.30;;;;;;5065348;28;20033;-70
2021/03/22 06:08:59;;;;;;;34.50;7.20;;;3.50;91.40;;;;;;5070555;28;20066;-70
2021/03/22 06:11:35;;;;;;;32.87;7.37;;;3.60;91.40;;;;;;5069896;28;20134;-69
2021/03/22 06:14:16;;;;;;;35.47;7.47;;;3.70;91.40;;;;;;5047216;28;20043;-68
2021/03/22 06:16:47;;;;;;;34.87;7.33;;;3.70;91.30;;;;;;5042931;28;20119;-70
2021/03/22 06:19:17;;;;;;;29.65;6.43;;;3.80;91.30;;;;;;5058519;28;20063;-69
2021/03/22 06:21:46;;;;;;;28.00;6.55;;;3.80;91.20;;;;;;5068413;28;20044;-69
2021/03/22 06:24:20;;;;;;;29.57;7.20;;;3.80;91.20;;;;;;5057301;28;20033;-69
2021/03/22 06:26:49;;;;;;;30.30;6.90;;;3.90;91.30;;;;;;5066305;28;20469;-70
2021/03/22 06:29:19;;;;;;;25.67;6.63;;;4.00;91.30;;;;;;5071548;28;20032;-69
2021/03/22 06:31:47;;;;;;;24.67;6.43;;;4.10;91.30;;;;;;5070780;28;20549;-69
2021/03/22 06:34:17;;;;;;;27.03;6.43;;;4.10;91.30;;;;;;5071613;28;20059;-69
2021/03/22 06:36:43;;;;;;;27.88;6.80;;;4.20;91.20;;;;;;5072505;28;20040;-69
2021/03/22 06:39:11;;;;;;;37.60;6.93;;;4.20;91.20;;;;;;5072581;28;20045;-72
2021/03/22 06:41:47;;;;;;;28.47;6.70;;;4.30;91.20;;;;;;5072337;28;20048;-69
2021/03/22 06:44:31;;;;;;;24.20;7.10;;;4.30;91.20;;;;;;5071995;28;20047;-69
2021/03/22 06:46:58;;;;;;;24.60;6.77;;;4.40;91.10;;;;;;5072291;28;20032;-69
2021/03/22 06:49:36;;;;;;;23.43;6.53;;;4.50;91.00;;;;;;5072223;28;20059;-70
2021/03/22 06:52:13;;;;;;;22.00;5.80;;;4.50;90.90;;;;;;5053757;28;20032;-69
2021/03/22 06:54:54;;;;;;;19.80;6.40;;;4.50;90.90;;;;;;5071312;28;20395;-69
2021/03/22 06:57:25;;;;;;;30.60;6.85;;;4.60;91.00;;;;;;5038299;28;20484;-69
2021/03/22 07:00:07;;;;;;;23.92;6.88;;;4.60;91.00;;;;;;5053372;28;20079;-69
2021/03/22 07:02:40;;;;;;;27.70;7.20;;;4.70;91.10;;;;;;5071251;28;20045;-69
2021/03/22 07:05:21;;;;;;;26.20;6.13;;;4.80;90.90;;;;;;5071174;28;20454;-69
2021/03/22 07:08:01;;;;;;;;;;;4.90;90.80;;;;;;5071759;28;20040;-69
2021/03/22 07:10:38;;;;;;;21.93;6.80;;;4.90;90.80;;;;;;5071480;28;19913;-69
2021/03/22 07:13:23;;;;;;;24.97;6.77;;;5.00;90.80;;;;;;5071105;28;20055;-69
2021/03/22 07:15:51;;;;;;;24.83;6.80;;;5.00;90.60;;;;;;5071401;28;20044;-70
2021/03/22 07:18:27;;;;;;;25.80;6.87;;;5.00;90.60;;;;;;5071021;28;20044;-70
2021/03/22 07:21:15;;;;;;;17.03;5.67;;;5.10;90.40;;;;;;5071226;28;20136;-69
2021/03/22 07:23:47;;;;;;;17.20;5.47;;;5.10;90.40;;;;;;5052826;28;20043;-70
2021/03/22 07:26:34;;;;;;;21.20;5.27;;;5.20;90.50;;;;;;5071307;28;20037;-70
2021/03/22 07:29:30;;;;;;;25.10;6.63;;;5.30;90.40;;;;;;5071178;28;20039;-70
2021/03/22 07:32:14;;;;;;;23.63;5.87;;;5.30;90.30;;;;;;5070412;28;20085;-69
2021/03/22 07:35:09;;;;;;;17.87;5.20;;;5.40;90.30;;;;;;5071245;28;20035;-72
2021/03/22 07:37:49;;;;;;;16.30;4.77;;;5.60;90.30;;;;;;5031360;28;20043;-73
2021/03/22 07:40:49;;;;;;;18.70;6.45;;;5.80;90.60;;;;;;5070988;28;20033;-72
2021/03/22 07:43:42;;;;;;;19.73;5.03;;;6.10;90.60;;;;;;5069868;28;20128;-69
2021/03/22 07:46:16;;;;;;;19.83;5.00;;;6.60;90.80;;;;;;5052664;28;20041;-69
2021/03/22 07:48:56;;;;;;;14.60;4.80;;;7.10;90.60;;;;;;5070994;28;20040;-71
2021/03/22 07:51:44;;;;;;;15.53;5.10;;;7.50;90.50;;;;;;5070388;28;20497;-70
2021/03/22 07:54:35;;;;;;;21.13;5.13;;;7.80;89.30;;;;;;5070510;28;20266;-70
2021/03/22 07:57:12;;;;;;;18.02;5.13;;;7.90;87.60;;;;;;5071039;28;20131;-71
2021/03/22 07:59:44;;;;;;;12.10;4.27;;;8.10;88.50;;;;;;5072066;28;20049;-70
2021/03/22 08:02:22;;;;;;;12.77;4.27;;;9.20;90.60;;;;;;5042430;28;20044;-72
2021/03/22 08:05:32;;;;;;;12.98;4.30;;;11.20;92.20;;;;;;5053646;28;20021;-71
2021/03/22 08:08:02;;;;;;;13.52;4.03;;;13.60;91.50;;;;;;5010435;28;20033;-72
2021/03/22 08:10:48;;;;;;;13.93;4.25;;;15.10;86.20;;;;;;5050553;28;20040;-71
2021/03/22 08:13:26;;;;;;;15.38;4.13;;;14.70;77.70;;;;;;5050426;28;20044;-71
2021/03/22 08:16:19;;;;;;;14.38;4.75;;;13.70;71.60;;;;;;5066071;28;20045;-71
2021/03/22 08:19:05;;;;;;;13.27;4.57;;;12.10;72.20;;;;;;5050092;28;20493;-71
2021/03/22 08:21:41;;;;;;;12.85;3.97;;;11.00;73.30;;;;;;5050016;28;20052;-70
2021/03/22 08:24:25;;;;;;;16.50;4.40;;;10.50;74.60;;;;;;5050633;28;20037;-70
2021/03/22 08:27:01;;;;;;;15.93;4.38;;;11.10;78.10;;;;;;5049939;28;20063;-70
2021/03/22 08:29:39;;;;;;;13.65;3.60;;;12.30;78.70;;;;;;5050773;28;20511;-72
2021/03/22 08:32:42;;;;;;;11.50;3.67;;;14.50;78.60;;;;;;5049905;28;20060;-70
2021/03/22 08:35:41;;;;;;;10.73;3.65;;;17.70;76.10;;;;;;5029596;28;20087;-72
2021/03/22 08:38:12;;;;;;;10.63;3.75;;;20.60;69.80;;;;;;5029697;28;20038;-72
2021/03/22 08:40:52;;;;;;;11.40;3.90;;;22.90;65.00;;;;;;5030120;28;20041;-72
2021/03/22 08:43:45;;;;;;;11.55;3.58;;;22.80;55.50;;;;;;5028511;28;20124;-72
2021/03/22 08:46:43;;;;;;;13.52;4.20;;;21.30;51.00;;;;;;5012372;28;20052;-74
2021/03/22 08:49:32;;;;;;;12.23;4.03;;;20.20;52.70;;;;;;5012234;28;20044;-74
2021/03/22 08:52:00;;;;;;;10.60;3.40;;;21.40;54.50;;;;;;5030048;28;20065;-74
2021/03/22 08:54:31;;;;;;;11.00;3.50;;;22.80;51.70;;;;;;5031748;28;20056;-73
2021/03/22 08:57:05;;;;;;;11.77;3.85;;;23.70;48.00;;;;;;5015945;28;20040;-72
2021/03/22 08:59:31;;;;;;;9.73;3.50;;;24.00;46.50;;;;;;5033355;28;20039;-73
2021/03/22 09:02:24;;;;;;;9.15;3.20;;;24.60;45.30;;;;;;5033030;28;20405;-74
2021/03/22 09:04:51;;;;;;;12.02;3.78;;;25.60;42.60;;;;;;5032822;28;20489;-73
2021/03/22 09:07:17;;;;;;;10.63;3.75;;;25.10;40.80;;;;;;5033520;28;20113;-73
2021/03/22 09:09:45;;;;;;;11.48;3.70;;;23.80;39.00;;;;;;5031580;28;20503;-73
2021/03/22 09:12:39;;;;;;;10.20;3.47;;;22.40;39.70;;;;;;5033233;28;20099;-73
2021/03/22 09:15:19;;;;;;;12.27;3.70;;;21.70;41.60;;;;;;5032958;28;20378;-73
2021/03/22 09:18:05;;;;;;;8.30;3.33;;;22.20;41.40;;;;;;5033026;28;20387;-73
2021/03/22 09:20:53;;;;;;;10.88;3.15;;;24.30;42.10;;;;;;5027521;28;20093;-74
2021/03/22 09:23:31;;;;;;;10.57;3.45;;;26.30;40.10;;;;;;5045156;28;20045;-74
2021/03/22 09:26:01;;;;;;;9.27;2.78;;;27.40;36.40;;;;;;5052787;28;20063;-74
2021/03/22 09:28:27;;;;;;;7.80;3.10;;;28.20;36.20;;;;;;5052254;28;20128;-73
2021/03/22 09:30:55;;;;;;;10.63;3.20;;;29.30;35.40;;;;;;5052617;28;20120;-74
2021/03/22 09:33:54;;;;;;;8.95;3.10;;;30.30;33.50;;;;;;5052430;28;20460;-72
2021/03/22 09:36:37;;;;;;;;;;;30.20;32.40;;;;;;5052789;28;20126;-73
2021/03/22 09:39:26;;;;;;;9.90;2.97;;;29.70;31.50;;;;;;5052769;28;19962;-73
2021/03/22 09:41:52;;;;;;;8.88;3.10;;;27.30;29.90;;;;;;5051947;28;20056;-75
2021/03/22 09:44:20;;;;;;;8.60;2.80;;;27.20;32.40;;;;;;5052644;28;20086;-73
2021/03/22 09:47:18;;;;;;;7.93;2.88;;;28.50;32.00;;;;;;5053448;28;20045;-74
2021/03/22 09:50:04;;;;;;;11.38;2.70;;;30.20;30.70;;;;;;5043625;28;20036;-73
2021/03/22 09:53:00;;;;;;;9.25;2.90;;;31.90;29.50;;;;;;5052731;28;20425;-74
2021/03/22 09:55:29;;;;;;;9.98;3.13;;;33.00;28.70;;;;;;5050650;28;20043;-75
2021/03/22 09:58:25;;;;;;;9.65;3.13;;;32.20;26.60;;;;;;5034548;28;20100;-74
2021/03/22 10:00:55;;;;;;;8.98;2.88;;;31.20;27.70;;;;;;5067249;28;20067;-73
2021/03/22 10:03:27;;;;;;;;;;;31.70;27.30;;;;;;5034721;28;20124;-73
2021/03/22 10:05:54;;;;;;;9.02;3.08;;;31.80;27.10;;;;;;5050708;28;19920;-73
2021/03/22 10:08:26;;;;;;;8.27;2.72;;;30.20;25.80;;;;;;5053414;28;20072;-73
2021/03/22 10:10:55;;;;;;;7.65;2.53;;;30.20;27.70;;;;;;5039197;28;20037;-72
2021/03/22 10:13:20;;;;;;;8.87;3.00;;;31.40;26.80;;;;;;5054000;28;20443;-74
2021/03/22 10:15:52;;;;;;;7.80;2.85;;;30.40;25.60;;;;;;5052671;28;20063;-72
2021/03/22 10:18:47;;;;;;;10.02;2.95;;;30.70;26.80;;;;;;5067296;28;20041;-73
2021/03/22 10:21:19;;;;;;;8.32;2.72;;;32.20;26.60;;;;;;5051353;28;20051;-72
2021/03/22 10:24:23;;;;;;;7.55;2.67;;;33.70;25.90;;;;;;5067635;28;20120;-74
2021/03/22 10:26:52;;;;;;;9.93;3.00;;;32.30;23.80;;;;;;5051267;28;20389;-73
2021/03/22 10:29:21;;;;;;;6.15;2.38;;;29.80;24.00;;;;;;5052372;28;20037;-71
2021/03/22 10:31:56;;;;;;;8.43;2.75;;;28.80;25.80;;;;;;5033040;28;20060;-72
2021/03/22 10:34:26;;;;;;;9.77;3.25;;;29.60;26.50;;;;;;5051567;28;20504;-74
2021/03/22 10:36:52;;;;;;;7.57;2.78;;;30.70;26.20;;;;;;5049353;28;20187;-74
2021/03/22 10:39:30;;;;;;;9.40;2.90;;;31.20;25.30;;;;;;5051563;28;20040;-74
2021/03/22 10:41:56;;;;;;;10.10;2.70;;;29.50;24.10;;;;;;5050807;28;20045;-73
2021/03/22 10:44:26;;;;;;;8.13;2.78;;;28.00;25.30;;;;;;5051183;28;20043;-72
2021/03/22 10:47:11;;;;;;;6.85;2.20;;;26.70;25.80;;;;;;5050910;28;20041;-73
2021/03/22 10:49:38;;;;;;;9.40;2.83;;;26.30;26.60;;;;;;5051312;28;20115;-74
2021/03/22 10:52:29;;;;;;;7.75;2.60;;;26.20;26.30;;;;;;5050277;28;20409;-73
2021/03/22 10:54:56;;;;;;;6.93;2.20;;;26.00;26.30;;;;;;5051024;28;20041;-73
2021/03/22 10:57:27;;;;;;;7.45;2.55;;;26.00;26.40;;;;;;5050781;28;20205;-73
2021/03/22 10:59:57;;;;;;;7.15;2.40;;;26.40;26.70;;;;;;5051038;28;20060;-74
2021/03/22 11:02:43;;;;;;;8.40;2.40;;;27.00;26.80;;;;;;5050453;28;20056;-73
2021/03/22 11:05:13;;;;;;;8.07;2.30;;;27.50;26.20;;;;;;5032237;28;20029;-70
2021/03/22 11:07:40;;;;;;;7.05;2.50;;;26.50;24.70;;;;;;5051400;28;20050;-74
2021/03/22 11:10:14;;;;;;;7.00;2.42;;;24.70;25.20;;;;;;5048218;28;20071;-73
2021/03/22 11:12:45;;;;;;;7.07;2.50;;;22.90;25.60;;;;;;5050349;28;20037;-74
2021/03/22 11:15:32;;;;;;;7.07;2.17;;;21.80;27.30;;;;;;5050446;28;20033;-73
2021/03/22 11:17:59;;;;;;;7.90;2.50;;;22.20;28.70;;;;;;5032381;28;20463;-71
2021/03/22 11:20:28;;;;;;;7.35;2.40;;;23.00;28.10;;;;;;5050598;28;20517;-71
2021/03/22 11:23:25;;;;;;;7.90;2.50;;;23.80;28.10;;;;;;5050005;28;20410;-71
2021/03/22 11:26:09;;;;;;;9.02;2.90;;;23.80;27.30;;;;;;5050199;28;20067;-71
2021/03/22 11:28:35;;;;;;;8.48;2.53;;;24.60;27.40;;;;;;5050751;28;20043;-71
2021/03/22 11:31:05;;;;;;;7.13;2.42;;;25.40;27.30;;;;;;5049919;28;20037;-72
2021/03/22 11:33:39;;;;;;;7.65;2.15;;;25.70;26.70;;;;;;5050417;28;20044;-72
2021/03/22 11:36:12;;;;;;;8.95;2.60;;;25.10;25.70;;;;;;5050063;28;20033;-72
2021/03/22 11:38:50;;;;;;;7.05;2.20;;;23.50;25.90;;;;;;5050196;28;20056;-70
2021/03/22 11:41:36;;;;;;;6.93;2.40;;;22.10;26.70;;;;;;5031603;28;20134;-70
2021/03/22 11:44:17;;;;;;;8.77;2.40;;;20.90;27.50;;;;;;5032059;28;20037;-70
2021/03/22 11:46:45;;;;;;;8.85;2.30;;;19.90;28.40;;;;;;5049720;28;20052;-72
2021/03/22 11:49:50;;;;;;;7.25;2.53;;;19.00;28.90;;;;;;5050228;28;20108;-71
2021/03/22 11:52:23;;;;;;;7.40;2.30;;;18.20;30.30;;;;;;4952243;28;20098;-69
2021/03/22 11:55:03;;;;;;;7.68;2.42;;;18.50;32.00;;;;;;4969339;28;20062;-71
2021/03/22 11:57:33;;;;;;;7.38;2.50;;;19.70;32.00;;;;;;5018815;28;20056;-71
2021/03/22 12:00:05;;;;;;;5.75;1.95;;;20.90;31.30;;;;;;5031958;28;20033;-71
2021/03/22 12:02:51;;;;;;;8.52;2.83;;;21.20;29.90;;;;;;5049715;28;20501;-70
2021/03/22 12:05:41;;;;;;;9.90;3.13;;;21.10;29.40;;;;;;5049867;28;20033;-70
2021/03/22 12:08:33;;;;;;;7.63;3.13;;;20.80;29.50;;;;;;5031835;28;20041;-72
2021/03/22 12:11:01;;;;;;;9.50;2.95;;;20.70;29.90;;;;;;5049221;28;20538;-70
2021/03/22 12:13:27;;;;;;;8.70;2.95;;;20.80;30.30;;;;;;5049825;28;20030;-71
2021/03/22 12:15:53;;;;;;;6.47;2.25;;;21.30;30.60;;;;;;5032144;28;20272;-71
2021/03/22 12:18:25;;;;;;;7.70;2.85;;;22.10;30.20;;;;;;5031681;28;20044;-71
2021/03/22 12:20:51;;;;;;;8.45;3.20;;;21.90;29.10;;;;;;5049744;28;20412;-71
2021/03/22 12:23:17;;;;;;;8.70;2.90;;;21.40;29.20;;;;;;5049060;28;20040;-71
2021/03/22 12:25:42;;;;;;;8.82;2.75;;;20.60;29.40;;;;;;5031812;28;20051;-71
2021/03/22 12:28:08;;;;;;;7.40;2.70;;;19.80;29.90;;;;;;5049418;28;20124;-71
2021/03/22 12:30:35;;;;;;;6.35;2.38;;;19.50;31.50;;;;;;5053610;28;20045;-71
2021/03/22 12:33:02;;;;;;;7.30;2.50;;;20.00;32.60;;;;;;5053549;28;20119;-71
2021/03/22 12:35:35;;;;;;;6.68;2.72;;;20.10;31.40;;;;;;5053043;28;20493;-71
2021/03/22 12:38:03;;;;;;;7.50;2.80;;;19.70;30.70;;;;;;5035765;28;20044;-70
2021/03/22 12:40:28;;;;;;;7.60;2.85;;;19.00;30.90;;;;;;5018643;28;20044;-71
2021/03/22 12:42:55;;;;;;;7.78;2.70;;;18.40;32.00;;;;;;5053371;28;20049;-71
2021/03/22 12:45:28;;;;;;;8.55;2.95;;;18.00;32.70;;;;;;5035438;28;20097;-70
2021/03/22 12:47:54;;;;;;;9.57;2.50;;;17.60;33.50;;;;;;5053212;28;20061;-70
2021/03/22 12:50:32;;;;;;;9.45;2.70;;;17.20;34.10;;;;;;5035579;28;20037;-69
2021/03/22 12:52:59;;;;;;;7.75;2.92;;;16.80;35.10;;;;;;5035154;28;20041;-69
2021/03/22 12:55:27;;;;;;;7.05;2.42;;;16.80;35.80;;;;;;5053302;28;20167;-69
2021/03/22 12:57:55;;;;;;;8.65;2.30;;;17.00;36.40;;;;;;5052690;28;20396;-70
2021/03/22 13:00:24;;;;;;;6.78;2.60;;;17.50;37.20;;;;;;5052712;28;20057;-70
2021/03/22 13:02:50;;;;;;;6.00;2.17;;;18.10;37.00;;;;;;5051816;28;20045;-70
2021/03/22 13:05:20;;;;;;;8.80;2.30;;;18.40;35.80;;;;;;5034295;28;20045;-71
2021/03/22 13:07:46;;;;;;;;;;;18.00;34.80;;;;;;5041558;28;20135;-71
2021/03/22 13:10:15;;;;;;;8.38;2.38;;;17.60;35.60;;;;;;5052668;28;20388;-71
2021/03/22 13:12:41;;;;;;;6.95;1.98;;;17.30;36.00;;;;;;5052757;28;20049;-74
2021/03/22 13:15:19;;;;;;;9.70;2.25;;;17.30;37.00;;;;;;5034997;28;20040;-73
2021/03/22 13:17:45;;;;;;;5.78;1.90;;;17.10;37.10;;;;;;5034586;28;20044;-71
2021/03/22 13:20:15;;;;;;;7.22;2.42;;;17.00;37.10;;;;;;5052644;28;20041;-74
2021/03/22 13:22:41;;;;;;;5.38;2.00;;;16.90;37.60;;;;;;5052108;28;20040;-74